Time;durP1;ratioP1;P1;durP2;ratioP2;P2;SDS_P1;SDS_P2;PMS_P1;PMS_P2;Temp;Humidity;BMP_temperature;BMP_pressure;BME280_temperature;BME280_humidity;BME280_pressure;Samples;Min_cycle;Max_cycle;Signal;HPM_P1;HPM_P2
2021/04/01 00:02:31;;;;;;;70.57;46.85;;;;;;;;;;4995138;28;20054;-65
2021/04/01 00:05:17;;;;;;;70.93;49.40;;;;;;;;;;4998597;28;20046;-65
2021/04/01 00:08:06;;;;;;;74.32;48.15;;;;;;;;;;5014240;28;20428;-65
2021/04/01 00:10:51;;;;;;;78.45;49.78;;;;;;;;;;4998361;28;20518;-64
2021/04/01 00:13:36;;;;;;;74.70;50.60;;;;;;;;;;4994708;28;20658;-65
2021/04/01 00:16:22;;;;;;;78.95;50.30;;;;;;;;;;4994663;28;20064;-65
2021/04/01 00:19:08;;;;;;;77.93;51.28;;;;;;;;;;4995023;28;20058;-65
2021/04/01 00:21:56;;;;;;;72.88;48.22;;;;;;;;;;4994848;28;20050;-65
2021/04/01 00:24:41;;;;;;;78.63;50.78;;;;;;;;;;4994550;28;20058;-65
2021/04/01 00:27:26;;;;;;;75.40;48.00;;;;;;;;;;4994761;28;20161;-65
2021/04/01 00:30:12;;;;;;;72.30;48.50;;;;;;;;;;4994335;28;20047;-65
2021/04/01 00:32:57;;;;;;;76.38;47.47;;;;;;;;;;4994018;28;20046;-63
2021/04/01 00:35:42;;;;;;;76.38;50.20;;;;;;;;;;4994432;28;20054;-64
2021/04/01 00:38:28;;;;;;;73.57;48.30;;;;;;;;;;4994405;28;20045;-63
2021/04/01 00:41:13;;;;;;;76.30;51.30;;;;;;;;;;4994142;28;20052;-63
2021/04/01 00:44:03;;;;;;;80.85;53.38;;;;;;;;;;4999108;28;20053;-63
2021/04/01 00:46:48;;;;;;;89.80;55.15;;;;;;;;;;5013729;28;20509;-63
2021/04/01 00:49:35;;;;;;;82.90;51.33;;;;;;;;;;5013596;28;20046;-63
2021/04/01 00:52:22;;;;;;;85.93;53.20;;;;;;;;;;5013650;28;20056;-63
2021/04/01 00:55:08;;;;;;;88.03;53.72;;;;;;;;;;5005606;28;20545;-63
2021/04/01 00:57:54;;;;;;;94.30;56.45;;;;;;;;;;4994058;28;20054;-63
2021/04/01 01:00:39;;;;;;;92.00;54.58;;;;;;;;;;4992793;28;20045;-63
2021/04/01 01:03:24;;;;;;;92.63;57.08;;;;;;;;;;4993993;28;20089;-63
2021/04/01 01:06:10;;;;;;;91.63;57.08;;;;;;;;;;4993323;28;20049;-63
2021/04/01 01:08:56;;;;;;;90.55;56.75;;;;;;;;;;4993805;28;20043;-64
2021/04/01 01:11:41;;;;;;;91.70;53.58;;;;;;;;;;4993670;28;20047;-63
2021/04/01 01:14:26;;;;;;;90.20;53.25;;;;;;;;;;4993448;28;20042;-63
2021/04/01 01:17:14;;;;;;;88.03;54.08;;;;;;;;;;5021935;23;20048;-64
2021/04/01 01:20:00;;;;;;;91.85;53.10;;;;;;;;;;5032001;28;20056;-65
2021/04/01 01:22:45;;;;;;;87.80;55.08;;;;;;;;;;5032852;28;20091;-65
2021/04/01 01:25:30;;;;;;;91.22;55.13;;;;;;;;;;5038427;28;20045;-65
2021/04/01 01:28:16;;;;;;;98.30;58.30;;;;;;;;;;5038675;28;20045;-66
2021/04/01 01:31:01;;;;;;;94.20;57.38;;;;;;;;;;5032560;28;20128;-65
2021/04/01 01:33:47;;;;;;;93.90;56.33;;;;;;;;;;5020657;28;20129;-65
2021/04/01 01:36:32;;;;;;;99.70;59.05;;;;;;;;;;5024779;28;20105;-65
2021/04/01 01:39:17;;;;;;;101.28;59.92;;;;;;;;;;5032456;28;20493;-65
2021/04/01 01:42:03;;;;;;;98.13;59.90;;;;;;;;;;5032520;28;20115;-65
2021/04/01 01:44:48;;;;;;;96.55;59.17;;;;;;;;;;5032501;28;20042;-65
2021/04/01 01:47:33;;;;;;;92.95;58.47;;;;;;;;;;5031447;28;20046;-66
2021/04/01 01:50:19;;;;;;;99.32;60.88;;;;;;;;;;5032139;28;20076;-65
2021/04/01 01:53:05;;;;;;;97.13;58.72;;;;;;;;;;5032510;28;20045;-64
2021/04/01 01:55:50;;;;;;;99.90;59.17;;;;;;;;;;5031468;28;20054;-66
2021/04/01 01:58:35;;;;;;;102.82;58.95;;;;;;;;;;5032194;28;20056;-65
2021/04/01 02:01:22;;;;;;;96.18;57.28;;;;;;;;;;5032038;28;20490;-66
2021/04/01 02:04:08;;;;;;;102.03;58.45;;;;;;;;;;5032369;28;20046;-65
2021/04/01 02:06:53;;;;;;;108.20;63.03;;;;;;;;;;5030093;28;20041;-65
2021/04/01 02:09:45;;;;;;;101.43;62.40;;;;;;;;;;5031825;28;20490;-65
2021/04/01 02:12:30;;;;;;;106.93;60.60;;;;;;;;;;5032235;28;20188;-66
2021/04/01 02:15:17;;;;;;;98.28;59.13;;;;;;;;;;5031067;28;20508;-65
2021/04/01 02:18:11;;;;;;;104.13;61.97;;;;;;;;;;5031919;28;20060;-65
2021/04/01 02:20:57;;;;;;;101.55;60.58;;;;;;;;;;5031805;28;20049;-66
2021/04/01 02:23:43;;;;;;;97.35;59.83;;;;;;;;;;5031872;28;20413;-65
2021/04/01 02:26:28;;;;;;;101.32;62.35;;;;;;;;;;5031059;28;20481;-65
2021/04/01 02:29:14;;;;;;;103.38;63.33;;;;;;;;;;5031837;28;20120;-66
2021/04/01 02:31:59;;;;;;;100.93;62.65;;;;;;;;;;5031576;28;20648;-66
2021/04/01 02:34:45;;;;;;;104.95;64.03;;;;;;;;;;5032007;28;20124;-65
2021/04/01 02:37:30;;;;;;;104.22;63.42;;;;;;;;;;5016060;28;20049;-65
2021/04/01 02:40:15;;;;;;;102.78;64.07;;;;;;;;;;5030883;28;20060;-65
2021/04/01 02:43:00;;;;;;;107.38;67.30;;;;;;;;;;5030794;28;20057;-65
2021/04/01 02:45:46;;;;;;;106.82;64.95;;;;;;;;;;5030767;28;20449;-64
2021/04/01 02:48:31;;;;;;;104.88;62.65;;;;;;;;;;5031631;28;20049;-66
2021/04/01 02:51:16;;;;;;;104.55;63.42;;;;;;;;;;5029786;28;20045;-65
2021/04/01 02:54:01;;;;;;;104.20;63.20;;;;;;;;;;5025767;28;20050;-65
2021/04/01 02:56:47;;;;;;;101.93;64.20;;;;;;;;;;5018961;28;20049;-66
2021/04/01 02:59:32;;;;;;;103.25;64.38;;;;;;;;;;5031601;28;20053;-65
2021/04/01 03:02:19;;;;;;;110.00;65.80;;;;;;;;;;5031626;28;20042;-66
2021/04/01 03:05:08;;;;;;;107.00;63.75;;;;;;;;;;5031570;28;20401;-64
2021/04/01 03:07:53;;;;;;;108.05;62.63;;;;;;;;;;5030478;28;20042;-65
2021/04/01 03:10:39;;;;;;;106.63;65.43;;;;;;;;;;5031381;28;20452;-65
2021/04/01 03:13:24;;;;;;;104.63;62.88;;;;;;;;;;5031456;28;20042;-64
2021/04/01 03:16:09;;;;;;;104.00;64.63;;;;;;;;;;5029652;28;20414;-65
2021/04/01 03:18:55;;;;;;;105.03;65.18;;;;;;;;;;5031239;28;20049;-65
2021/04/01 03:21:41;;;;;;;105.53;63.78;;;;;;;;;;5031333;28;20049;-65
2021/04/01 03:24:26;;;;;;;112.63;65.13;;;;;;;;;;5031581;28;20050;-66
2021/04/01 03:27:12;;;;;;;114.20;65.78;;;;;;;;;;5030361;28;20497;-66
2021/04/01 03:30:07;;;;;;;108.03;65.78;;;;;;;;;;5031138;28;20045;-65
2021/04/01 03:32:52;;;;;;;109.38;66.55;;;;;;;;;;5031497;28;20041;-65
2021/04/01 03:35:37;;;;;;;113.78;68.07;;;;;;;;;;5030328;28;20128;-65
2021/04/01 03:38:23;;;;;;;114.65;68.63;;;;;;;;;;5031180;28;20049;-65
2021/04/01 03:41:09;;;;;;;113.00;67.90;;;;;;;;;;5031112;28;20050;-65
2021/04/01 03:43:54;;;;;;;120.57;71.72;;;;;;;;;;5032632;28;20050;-65
2021/04/01 03:46:40;;;;;;;119.32;72.80;;;;;;;;;;5030562;28;20041;-66
2021/04/01 03:49:25;;;;;;;122.15;71.60;;;;;;;;;;5014632;28;20502;-65
2021/04/01 03:52:11;;;;;;;120.85;71.15;;;;;;;;;;5029533;28;20049;-65
2021/04/01 03:55:01;;;;;;;129.70;71.57;;;;;;;;;;5034596;28;20053;-65
2021/04/01 03:57:47;;;;;;;124.70;72.90;;;;;;;;;;5033777;28;20128;-65
2021/04/01 04:00:34;;;;;;;134.25;78.03;;;;;;;;;;5034274;28;20041;-64
2021/04/01 04:03:35;;;;;;;138.35;77.38;;;;;;;;;;5034427;28;20077;-64
2021/04/01 04:12:43;;;;;;;141.52;75.72;;;;;;;;;;5014588;28;20449;-64
2021/04/01 04:15:28;;;;;;;144.98;80.28;;;;;;;;;;5000684;28;20057;-63
2021/04/01 04:18:14;;;;;;;136.13;76.40;;;;;;;;;;5023011;28;20074;-64
2021/04/01 04:20:59;;;;;;;149.23;80.35;;;;;;;;;;5028147;28;20053;-64
2021/04/01 04:23:49;;;;;;;149.18;79.85;;;;;;;;;;5034168;28;20432;-64
2021/04/01 04:26:35;;;;;;;139.88;71.18;;;;;;;;;;5033891;28;20050;-64
2021/04/01 04:29:20;;;;;;;135.45;77.00;;;;;;;;;;5015451;28;20041;-64
2021/04/01 04:32:06;;;;;;;141.98;79.03;;;;;;;;;;5014171;28;20056;-64
2021/04/01 04:34:51;;;;;;;136.05;74.68;;;;;;;;;;5013931;28;20088;-63
2021/04/01 04:37:37;;;;;;;143.80;77.40;;;;;;;;;;5022172;28;20056;-64
2021/04/01 04:40:22;;;;;;;140.65;76.18;;;;;;;;;;5026962;28;20033;-64
2021/04/01 04:43:08;;;;;;;130.77;73.28;;;;;;;;;;5033731;28;20041;-64
2021/04/01 04:45:53;;;;;;;128.10;72.55;;;;;;;;;;5012866;28;20046;-64
2021/04/01 04:48:38;;;;;;;146.40;78.18;;;;;;;;;;5025783;28;20104;-64
2021/04/01 04:51:23;;;;;;;139.43;79.07;;;;;;;;;;5030467;28;20049;-65
2021/04/01 04:54:09;;;;;;;137.50;77.28;;;;;;;;;;5016324;28;20048;-64
2021/04/01 04:56:56;;;;;;;136.40;77.93;;;;;;;;;;5022597;28;20067;-64
2021/04/01 05:05:43;;;;;;;135.38;77.35;;;;;;;;;;4998570;28;20042;-63
2021/04/01 05:08:28;;;;;;;140.38;80.13;;;;;;;;;;5025987;28;20045;-64
2021/04/01 05:11:13;;;;;;;136.38;77.15;;;;;;;;;;5032426;28;20045;-64
2021/04/01 05:13:59;;;;;;;137.98;74.85;;;;;;;;;;5033147;28;20050;-63
2021/04/01 05:16:44;;;;;;;134.20;75.63;;;;;;;;;;5027256;28;20045;-64
2021/04/01 05:19:31;;;;;;;130.40;75.47;;;;;;;;;;5031326;28;20053;-64
2021/04/01 05:25:03;;;;;;;131.00;74.30;;;;;;;;;;5032825;28;20071;-65
2021/04/01 05:27:53;;;;;;;128.10;71.35;;;;;;;;;;5031668;28;20127;-64
2021/04/01 05:30:39;;;;;;;131.15;72.50;;;;;;;;;;5032551;28;20046;-64
2021/04/01 05:33:32;;;;;;;127.57;73.70;;;;;;;;;;5032609;28;20049;-64
2021/04/01 05:36:39;;;;;;;124.33;72.77;;;;;;;;;;5032878;28;20072;-65
2021/04/01 05:39:35;;;;;;;116.60;68.30;;;;;;;;;;5031425;28;20140;-64
2021/04/01 05:42:23;;;;;;;125.13;75.50;;;;;;;;;;5032548;28;20124;-64
2021/04/01 05:45:26;;;;;;;125.75;75.72;;;;;;;;;;5031804;28;20045;-64
2021/04/01 05:48:17;;;;;;;131.32;74.28;;;;;;;;;;5014571;28;20528;-64
2021/04/01 05:51:46;;;;;;;135.80;77.38;;;;;;;;;;5024680;28;20050;-64
2021/04/01 06:03:20;;;;;;;129.75;70.47;;;;;;;;;;5012538;28;20042;-64
2021/04/01 06:06:08;;;;;;;114.10;71.05;;;;;;;;;;5012594;28;20434;-64
2021/04/01 06:08:56;;;;;;;103.07;60.67;;;;;;;;;;5017266;28;20042;-64
2021/04/01 06:11:41;;;;;;;97.63;51.35;;;;;;;;;;5031934;28;20045;-64
2021/04/01 06:14:40;;;;;;;92.80;52.28;;;;;;;;;;5017291;28;20048;-64
2021/04/01 06:17:30;;;;;;;87.32;50.00;;;;;;;;;;5015546;28;20049;-64
2021/04/01 06:20:15;;;;;;;74.60;39.47;;;;;;;;;;5034158;28;20041;-64
2021/04/01 06:23:00;;;;;;;61.60;34.78;;;;;;;;;;5030394;28;20041;-64
2021/04/01 06:25:49;;;;;;;70.28;36.70;;;;;;;;;;5031724;28;20041;-64
2021/04/01 06:28:45;;;;;;;57.15;30.83;;;;;;;;;;5036340;28;20037;-64
2021/04/01 06:31:40;;;;;;;59.78;30.38;;;;;;;;;;5040898;28;20056;-64
2021/04/01 06:34:39;;;;;;;53.03;27.23;;;;;;;;;;5040207;28;20041;-64
2021/04/01 06:40:19;;;;;;;26.45;12.00;;;;;;;;;;5048098;28;20048;-64
2021/04/01 06:43:31;;;;;;;27.33;15.35;;;;;;;;;;5051814;28;20402;-64
2021/04/01 06:46:17;;;;;;;30.58;14.85;;;;;;;;;;5010436;28;20054;-64
2021/04/01 06:49:23;;;;;;;23.80;12.15;;;;;;;;;;5012270;28;20046;-64
2021/04/01 06:52:15;;;;;;;20.52;8.48;;;;;;;;;;5029397;28;20045;-64
2021/04/01 06:55:14;;;;;;;;;;;;;;;;;;5032164;28;20046;-64
2021/04/01 06:58:19;;;;;;;19.25;6.85;;;;;;;;;;5031629;28;19921;-65
2021/04/01 07:01:11;;;;;;;15.60;5.88;;;;;;;;;;5029594;28;20041;-64
2021/04/01 07:03:58;;;;;;;18.95;5.70;;;;;;;;;;5017884;28;20049;-64
2021/04/01 07:06:46;;;;;;;13.35;5.53;;;;;;;;;;5030202;28;20046;-65
2021/04/01 07:09:35;;;;;;;12.18;5.20;;;;;;;;;;5031477;28;20132;-64
2021/04/01 07:12:26;;;;;;;13.75;4.80;;;;;;;;;;5031478;28;20045;-66
2021/04/01 07:15:14;;;;;;;17.42;4.90;;;;;;;;;;5017502;28;20045;-65
2021/04/01 07:18:53;;;;;;;12.85;3.88;;;;;;;;;;5045551;22;20053;-63
2021/04/01 07:48:05;;;;;;;14.02;2.30;;;;;;;;;;4989741;28;20054;-64
2021/04/01 07:50:50;;;;;;;18.88;3.22;;;;;;;;;;4995063;28;20089;-63
2021/04/01 07:53:35;;;;;;;14.10;2.70;;;;;;;;;;4995488;28;20050;-63
2021/04/01 07:56:26;;;;;;;14.15;2.58;;;;;;;;;;4980692;28;20216;-63
2021/04/01 07:59:21;;;;;;;14.77;3.10;;;;;;;;;;5013441;28;20045;-63
2021/04/01 08:02:48;;;;;;;18.30;2.80;;;;;;;;;;5014888;28;20103;-63
2021/04/01 08:05:34;;;;;;;19.00;3.30;;;;;;;;;;5004380;28;20180;-63
2021/04/01 08:08:19;;;;;;;15.45;3.17;;;;;;;;;;5014589;28;20046;-63
2021/04/01 08:11:06;;;;;;;16.13;2.95;;;;;;;;;;4998750;28;20050;-63
2021/04/01 08:13:52;;;;;;;10.80;2.50;;;;;;;;;;5014307;28;20060;-63
2021/04/01 08:16:45;;;;;;;17.35;5.00;;;;;;;;;;5014245;28;20490;-63
2021/04/01 08:19:31;;;;;;;16.88;4.05;;;;;;;;;;5012966;28;20038;-63
2021/04/01 08:22:20;;;;;;;11.40;2.90;;;;;;;;;;4999653;28;20049;-63
2021/04/01 08:25:07;;;;;;;14.20;2.45;;;;;;;;;;5014329;28;20049;-63
2021/04/01 08:27:59;;;;;;;16.92;3.45;;;;;;;;;;4993433;28;20047;-63
2021/04/01 08:36:54;;;;;;;11.27;3.20;;;;;;;;;;5012103;28;20061;-64
2021/04/01 08:39:40;;;;;;;14.55;3.28;;;;;;;;;;5013794;28;20449;-64
2021/04/01 08:42:44;;;;;;;22.02;4.38;;;;;;;;;;4998771;28;20042;-64
2021/04/01 08:45:48;;;;;;;12.40;3.05;;;;;;;;;;5013847;28;20045;-64
2021/04/01 08:48:52;;;;;;;11.40;2.33;;;;;;;;;;5013698;28;20038;-64
2021/04/01 08:51:56;;;;;;;17.55;3.90;;;;;;;;;;5002274;28;20057;-64
2021/04/01 08:54:42;;;;;;;15.68;3.85;;;;;;;;;;5012902;28;20045;-64
2021/04/01 08:57:30;;;;;;;9.35;2.80;;;;;;;;;;5010961;28;20049;-63
2021/04/01 09:00:15;;;;;;;12.23;4.47;;;;;;;;;;5012012;28;20049;-64
2021/04/01 09:03:02;;;;;;;9.98;3.65;;;;;;;;;;5011793;28;20042;-63
2021/04/01 09:05:56;;;;;;;12.35;2.45;;;;;;;;;;5010853;28;20490;-63
2021/04/01 09:08:43;;;;;;;8.45;2.50;;;;;;;;;;4998186;28;20062;-64
2021/04/01 09:11:35;;;;;;;8.25;1.58;;;;;;;;;;4993792;28;20514;-64
2021/04/01 09:14:27;;;;;;;11.10;2.37;;;;;;;;;;5012401;28;20486;-63
2021/04/01 09:17:15;;;;;;;12.45;2.58;;;;;;;;;;5005133;28;20748;-64
2021/04/01 09:20:10;;;;;;;13.30;2.30;;;;;;;;;;5010857;28;20049;-64
2021/04/01 09:22:57;;;;;;;11.90;2.83;;;;;;;;;;5009771;28;20493;-64
2021/04/01 09:25:44;;;;;;;11.82;2.58;;;;;;;;;;5011587;28;20042;-64
2021/04/01 09:28:32;;;;;;;11.75;1.83;;;;;;;;;;5012277;28;20049;-64
2021/04/01 09:31:20;;;;;;;6.35;2.25;;;;;;;;;;5007180;28;20046;-65
2021/04/01 09:34:06;;;;;;;5.75;1.63;;;;;;;;;;4993699;28;21431;-65
2021/04/01 09:36:53;;;;;;;5.45;1.67;;;;;;;;;;4995277;28;20049;-64
2021/04/01 09:39:38;;;;;;;7.90;2.35;;;;;;;;;;4993079;28;20051;-64
2021/04/01 09:42:23;;;;;;;6.53;1.17;;;;;;;;;;4993401;28;20184;-64
2021/04/01 09:45:09;;;;;;;6.97;1.65;;;;;;;;;;4997210;28;20042;-65
2021/04/01 09:47:55;;;;;;;9.63;1.45;;;;;;;;;;5012808;28;20046;-64
2021/04/01 09:50:42;;;;;;;10.23;2.03;;;;;;;;;;4997898;28;20045;-64
2021/04/01 09:53:27;;;;;;;4.70;1.80;;;;;;;;;;5001171;28;20130;-64
2021/04/01 09:56:17;;;;;;;3.13;1.30;;;;;;;;;;5011258;28;20042;-64
2021/04/01 09:59:03;;;;;;;8.68;1.60;;;;;;;;;;4992462;28;20129;-63
2021/04/01 10:01:48;;;;;;;6.38;1.10;;;;;;;;;;5012503;28;20042;-63
2021/04/01 10:04:35;;;;;;;7.68;2.17;;;;;;;;;;4997896;28;20486;-64
2021/04/01 10:07:20;;;;;;;8.88;1.45;;;;;;;;;;4996845;28;20046;-63
2021/04/01 10:10:06;;;;;;;9.20;2.28;;;;;;;;;;4997390;28;20498;-64
2021/04/01 10:12:51;;;;;;;14.20;2.53;;;;;;;;;;5012401;28;20124;-63
2021/04/01 10:15:36;;;;;;;6.18;1.30;;;;;;;;;;4995246;28;20490;-63
2021/04/01 10:18:25;;;;;;;7.65;1.58;;;;;;;;;;5010565;28;20054;-63
2021/04/01 10:21:12;;;;;;;6.38;1.40;;;;;;;;;;5007828;28;20413;-63
2021/04/01 10:24:04;;;;;;;5.88;1.63;;;;;;;;;;5012193;28;20192;-63
2021/04/01 10:26:49;;;;;;;5.60;1.33;;;;;;;;;;5008769;28;20410;-63
2021/04/01 10:30:17;;;;;;;12.70;2.10;;;;;;;;;;4983081;28;20494;-63
2021/04/01 10:32:46;;;;;;;7.03;1.40;;;;;;;;;;5010989;28;20068;-63
2021/04/01 10:35:32;;;;;;;12.73;2.70;;;;;;;;;;4995467;28;20050;-63
2021/04/01 10:38:18;;;;;;;9.55;1.90;;;;;;;;;;4992162;28;20498;-63
2021/04/01 10:41:11;;;;;;;6.07;1.70;;;;;;;;;;5008332;28;20042;-63
2021/04/01 10:44:00;;;;;;;5.97;1.45;;;;;;;;;;5007721;28;20047;-63
2021/04/01 10:46:52;;;;;;;7.30;2.63;;;;;;;;;;5009408;28;20094;-63
2021/04/01 10:49:38;;;;;;;5.93;1.75;;;;;;;;;;5005794;28;20124;-64
2021/04/01 10:52:23;;;;;;;6.57;1.10;;;;;;;;;;5012602;28;20120;-64
2021/04/01 10:55:09;;;;;;;9.82;1.83;;;;;;;;;;5001443;28;20046;-63
2021/04/01 10:57:54;;;;;;;13.45;2.03;;;;;;;;;;4999882;28;20046;-63
2021/04/01 11:00:40;;;;;;;7.72;1.48;;;;;;;;;;5015647;28;20046;-64
2021/04/01 11:03:26;;;;;;;9.70;1.88;;;;;;;;;;5015890;28;20042;-64
2021/04/01 11:06:12;;;;;;;5.00;1.60;;;;;;;;;;5015838;28;20054;-63
2021/04/01 11:08:59;;;;;;;6.63;1.27;;;;;;;;;;5014510;28;20053;-63
2021/04/01 11:14:50;;;;;;;8.00;1.58;;;;;;;;;;5015604;28;20046;-63
2021/04/01 11:17:39;;;;;;;7.38;2.22;;;;;;;;;;5013688;28;20129;-63
2021/04/01 11:20:24;;;;;;;9.32;2.05;;;;;;;;;;4994819;28;20054;-63
2021/04/01 11:23:13;;;;;;;10.32;1.73;;;;;;;;;;4996045;28;20050;-62
2021/04/01 11:25:58;;;;;;;8.00;1.65;;;;;;;;;;4995927;28;20054;-63
2021/04/01 11:28:44;;;;;;;9.30;2.60;;;;;;;;;;4999915;28;20045;-63
2021/04/01 11:31:30;;;;;;;7.25;1.48;;;;;;;;;;5000237;28;20049;-63
2021/04/01 11:34:15;;;;;;;7.97;1.88;;;;;;;;;;5015402;28;20046;-63
2021/04/01 11:37:00;;;;;;;11.73;2.67;;;;;;;;;;4999589;28;20046;-63
2021/04/01 11:39:45;;;;;;;10.13;1.70;;;;;;;;;;5014882;28;20042;-63
2021/04/01 11:42:31;;;;;;;11.65;1.65;;;;;;;;;;5015253;28;20117;-63
2021/04/01 11:45:16;;;;;;;16.40;3.88;;;;;;;;;;5015072;28;20052;-63
2021/04/01 11:48:02;;;;;;;9.77;1.98;;;;;;;;;;5013452;28;20046;-63
2021/04/01 11:50:48;;;;;;;13.23;2.47;;;;;;;;;;5014907;28;20046;-63
2021/04/01 11:53:33;;;;;;;13.65;2.58;;;;;;;;;;5014893;28;20147;-63
2021/04/01 11:56:22;;;;;;;14.40;3.13;;;;;;;;;;5014873;28;20050;-63
2021/04/01 11:59:08;;;;;;;11.60;2.47;;;;;;;;;;5013375;28;20077;-63
2021/04/01 12:01:57;;;;;;;14.63;2.47;;;;;;;;;;5014717;28;20042;-64
2021/04/01 12:04:45;;;;;;;13.18;2.75;;;;;;;;;;5013881;28;20054;-64
2021/04/01 12:07:31;;;;;;;11.48;2.50;;;;;;;;;;4999103;28;20046;-63
2021/04/01 12:10:17;;;;;;;13.27;3.15;;;;;;;;;;5012233;28;20406;-64
2021/04/01 12:13:02;;;;;;;14.85;2.75;;;;;;;;;;4994919;28;20046;-64
2021/04/01 12:15:48;;;;;;;9.02;2.38;;;;;;;;;;4994884;28;20042;-63
2021/04/01 12:18:40;;;;;;;12.68;3.35;;;;;;;;;;5001083;28;20061;-64
2021/04/01 12:21:25;;;;;;;12.33;2.40;;;;;;;;;;4980038;28;20058;-64
2021/04/01 12:24:10;;;;;;;11.98;3.20;;;;;;;;;;4980111;28;20043;-64
2021/04/01 12:26:58;;;;;;;12.77;2.65;;;;;;;;;;4994789;28;20046;-63
2021/04/01 12:29:44;;;;;;;13.73;2.95;;;;;;;;;;5007459;28;20129;-64
2021/04/01 12:32:31;;;;;;;8.27;2.13;;;;;;;;;;5014353;28;20049;-64
2021/04/01 12:35:16;;;;;;;6.22;1.92;;;;;;;;;;5014277;28;20050;-64
2021/04/01 12:38:03;;;;;;;12.73;2.10;;;;;;;;;;5014028;28;20204;-64
2021/04/01 12:40:48;;;;;;;12.68;2.63;;;;;;;;;;5013788;28;20422;-63
2021/04/01 12:43:35;;;;;;;17.45;3.45;;;;;;;;;;5014260;28;20057;-63
2021/04/01 12:46:20;;;;;;;17.83;3.45;;;;;;;;;;5014181;28;20046;-64
2021/04/01 12:49:05;;;;;;;10.98;2.00;;;;;;;;;;5012251;28;20047;-63
2021/04/01 12:51:56;;;;;;;9.88;1.45;;;;;;;;;;5013734;28;20115;-63
2021/04/01 12:54:44;;;;;;;11.07;2.67;;;;;;;;;;5013675;28;20046;-64
2021/04/01 12:57:31;;;;;;;15.32;3.47;;;;;;;;;;5013861;28;20049;-63
2021/04/01 13:00:20;;;;;;;11.32;2.00;;;;;;;;;;5012063;28;20532;-64
2021/04/01 13:03:05;;;;;;;10.02;2.05;;;;;;;;;;4998939;28;20046;-63
2021/04/01 13:05:55;;;;;;;9.23;2.45;;;;;;;;;;5013783;28;20436;-64
2021/04/01 13:11:38;;;;;;;5.55;1.40;;;;;;;;;;5011784;28;20494;-64
2021/04/01 13:14:24;;;;;;;9.52;2.88;;;;;;;;;;5013391;28;20520;-64
2021/04/01 13:17:09;;;;;;;4.97;1.42;;;;;;;;;;5013327;28;20053;-64
2021/04/01 13:19:54;;;;;;;8.07;2.13;;;;;;;;;;5012120;28;20045;-64
2021/04/01 13:25:45;;;;;;;10.98;3.00;;;;;;;;;;4995562;28;20104;-63
2021/04/01 13:28:30;;;;;;;7.30;1.80;;;;;;;;;;5001508;28;20062;-64
2021/04/01 13:31:27;;;;;;;14.60;2.58;;;;;;;;;;5004877;28;20062;-64
2021/04/01 13:34:24;;;;;;;9.65;2.70;;;;;;;;;;4991882;28;20068;-64
2021/04/01 13:37:17;;;;;;;11.20;2.85;;;;;;;;;;5005450;28;20062;-63
2021/04/01 13:40:14;;;;;;;7.80;2.25;;;;;;;;;;5006533;28;20038;-64
2021/04/01 13:43:01;;;;;;;9.55;2.60;;;;;;;;;;5012279;28;20030;-64
2021/04/01 13:45:47;;;;;;;5.18;1.70;;;;;;;;;;5010835;28;20052;-64
2021/04/01 13:48:33;;;;;;;7.75;1.80;;;;;;;;;;5006110;28;20189;-64
2021/04/01 13:51:23;;;;;;;8.63;1.58;;;;;;;;;;4999643;28;20050;-64
2021/04/01 13:54:29;;;;;;;9.43;1.88;;;;;;;;;;4986059;28;20051;-64
2021/04/01 13:57:31;;;;;;;8.55;1.55;;;;;;;;;;4993749;28;20077;-64
2021/04/01 14:01:10;;;;;;;7.38;1.38;;;;;;;;;;4977240;28;20054;-64
2021/04/01 14:09:46;;;;;;;3.58;0.98;;;;;;;;;;5002843;28;20058;-64
2021/04/01 14:12:32;;;;;;;5.13;0.80;;;;;;;;;;4992774;28;20054;-64
2021/04/01 14:15:17;;;;;;;6.38;1.30;;;;;;;;;;4976074;28;20049;-64
2021/04/01 14:18:02;;;;;;;7.53;1.27;;;;;;;;;;5000292;28;20541;-64
2021/04/01 14:20:48;;;;;;;7.88;1.38;;;;;;;;;;4991497;28;20046;-64
2021/04/01 14:23:35;;;;;;;4.38;0.98;;;;;;;;;;5004043;28;20046;-64
2021/04/01 14:26:30;;;;;;;2.60;1.05;;;;;;;;;;5002406;28;20073;-64
2021/04/01 14:29:16;;;;;;;4.95;1.42;;;;;;;;;;4994080;28;20233;-64
2021/04/01 14:32:01;;;;;;;3.00;1.58;;;;;;;;;;4989559;28;20137;-64
2021/04/01 14:34:47;;;;;;;5.72;1.55;;;;;;;;;;5006333;28;20050;-65
2021/04/01 14:37:32;;;;;;;5.85;1.30;;;;;;;;;;5006479;28;20038;-63
2021/04/01 14:40:20;;;;;;;8.85;2.47;;;;;;;;;;4987677;28;20057;-64
2021/04/01 14:43:13;;;;;;;9.63;1.92;;;;;;;;;;4990189;28;20042;-64
2021/04/01 14:45:58;;;;;;;5.07;1.55;;;;;;;;;;5004788;28;20045;-64
2021/04/01 14:48:43;;;;;;;6.13;1.98;;;;;;;;;;5005822;28;20204;-64
2021/04/01 14:51:28;;;;;;;15.13;2.35;;;;;;;;;;5006368;28;20042;-64
2021/04/01 14:54:16;;;;;;;3.90;2.05;;;;;;;;;;5005732;28;20042;-64
2021/04/01 14:57:10;;;;;;;11.27;2.95;;;;;;;;;;5008103;28;20554;-64
2021/04/01 14:59:55;;;;;;;5.82;2.38;;;;;;;;;;5002106;28;20054;-64
2021/04/01 15:02:40;;;;;;;4.03;2.00;;;;;;;;;;5006868;28;20038;-64
2021/04/01 15:05:26;;;;;;;7.47;1.83;;;;;;;;;;4998586;28;20042;-64
2021/04/01 15:08:11;;;;;;;5.32;2.00;;;;;;;;;;4994345;28;20050;-64
2021/04/01 15:10:57;;;;;;;5.30;2.22;;;;;;;;;;4993785;28;20042;-64
2021/04/01 15:13:42;;;;;;;6.05;2.42;;;;;;;;;;5008853;28;20502;-64
2021/04/01 15:16:28;;;;;;;5.32;1.98;;;;;;;;;;5008459;28;20058;-64
2021/04/01 15:19:13;;;;;;;5.78;2.22;;;;;;;;;;4993320;28;20056;-65
2021/04/01 15:21:58;;;;;;;6.05;2.10;;;;;;;;;;5007581;28;20042;-65
2021/04/01 15:24:43;;;;;;;8.80;3.05;;;;;;;;;;5001084;28;20074;-65
2021/04/01 15:27:29;;;;;;;10.45;2.97;;;;;;;;;;4994618;28;20425;-65
2021/04/01 15:30:14;;;;;;;5.35;1.98;;;;;;;;;;5008877;28;20069;-65
2021/04/01 15:33:00;;;;;;;8.23;2.35;;;;;;;;;;5008312;28;20046;-65
2021/04/01 15:35:45;;;;;;;11.65;3.20;;;;;;;;;;4998731;28;20050;-64
2021/04/01 15:38:30;;;;;;;9.70;2.65;;;;;;;;;;5003297;28;20050;-64
2021/04/01 15:41:16;;;;;;;7.38;2.00;;;;;;;;;;4966619;28;20379;-65
2021/04/01 15:44:01;;;;;;;4.80;1.58;;;;;;;;;;5001970;28;20068;-65
2021/04/01 15:46:46;;;;;;;7.22;2.08;;;;;;;;;;5005490;28;20046;-65
2021/04/01 15:49:32;;;;;;;5.70;1.95;;;;;;;;;;5010067;28;20045;-65
2021/04/01 15:52:17;;;;;;;7.93;2.53;;;;;;;;;;5009905;28;20046;-65
2021/04/01 15:55:03;;;;;;;3.95;1.60;;;;;;;;;;5009073;28;20069;-65
2021/04/01 15:57:49;;;;;;;8.93;1.73;;;;;;;;;;5002573;28;20125;-65
2021/04/01 16:00:36;;;;;;;7.88;1.75;;;;;;;;;;4996657;28;20515;-65
2021/04/01 16:03:22;;;;;;;10.48;2.08;;;;;;;;;;5000745;28;20069;-65
2021/04/01 16:06:07;;;;;;;5.10;1.90;;;;;;;;;;5003469;28;20068;-65
2021/04/01 16:08:52;;;;;;;5.47;1.50;;;;;;;;;;4995661;28;20437;-65
2021/04/01 16:11:38;;;;;;;7.85;1.60;;;;;;;;;;5003365;28;20466;-65
2021/04/01 16:14:24;;;;;;;6.65;1.92;;;;;;;;;;5008911;28;20042;-65
2021/04/01 16:17:09;;;;;;;8.00;1.77;;;;;;;;;;5009806;28;20456;-65
2021/04/01 16:19:54;;;;;;;6.35;1.70;;;;;;;;;;4996722;28;20050;-64
2021/04/01 16:22:39;;;;;;;5.57;1.60;;;;;;;;;;5007347;28;20573;-64
2021/04/01 16:25:24;;;;;;;9.10;1.75;;;;;;;;;;5004712;28;20062;-64
2021/04/01 16:28:10;;;;;;;6.00;1.55;;;;;;;;;;5010670;28;20049;-64
2021/04/01 16:30:56;;;;;;;9.82;1.85;;;;;;;;;;4994540;28;20054;-64
2021/04/01 16:33:41;;;;;;;5.53;2.20;;;;;;;;;;4996179;28;20129;-64
2021/04/01 16:36:31;;;;;;;5.95;1.80;;;;;;;;;;5011644;28;20521;-64
2021/04/01 16:39:17;;;;;;;7.32;2.22;;;;;;;;;;5011640;28;20057;-64
2021/04/01 16:42:03;;;;;;;6.70;1.42;;;;;;;;;;5010635;28;20054;-64
2021/04/01 16:44:48;;;;;;;5.32;1.40;;;;;;;;;;5008671;28;20042;-64
2021/04/01 16:47:33;;;;;;;5.38;2.20;;;;;;;;;;4992890;28;20030;-64
2021/04/01 16:50:20;;;;;;;7.03;2.05;;;;;;;;;;4995542;28;20046;-65
2021/04/01 16:53:05;;;;;;;7.82;1.75;;;;;;;;;;5011056;28;20042;-63
2021/04/01 16:55:51;;;;;;;10.70;2.00;;;;;;;;;;5006132;28;20498;-64
2021/04/01 16:58:36;;;;;;;12.02;2.15;;;;;;;;;;5010637;28;20126;-64
2021/04/01 17:01:21;;;;;;;9.45;1.60;;;;;;;;;;5009104;28;20049;-63
2021/04/01 17:04:07;;;;;;;4.95;1.60;;;;;;;;;;5008290;28;20041;-63
2021/04/01 17:06:54;;;;;;;5.45;2.05;;;;;;;;;;5003527;28;20058;-63
2021/04/01 17:09:40;;;;;;;5.72;1.73;;;;;;;;;;4994846;28;20049;-63
2021/04/01 17:12:26;;;;;;;7.25;2.85;;;;;;;;;;5007479;28;20046;-63
2021/04/01 17:15:11;;;;;;;7.43;2.10;;;;;;;;;;5005956;28;20042;-64
2021/04/01 17:17:57;;;;;;;7.30;1.60;;;;;;;;;;5009766;28;20593;-64
2021/04/01 17:20:42;;;;;;;8.57;2.08;;;;;;;;;;5004246;28;20051;-63
2021/04/01 17:23:27;;;;;;;10.27;2.38;;;;;;;;;;5010552;28;20057;-63
2021/04/01 17:26:12;;;;;;;5.38;2.17;;;;;;;;;;5008008;28;20077;-63
2021/04/01 17:28:58;;;;;;;11.80;2.80;;;;;;;;;;5005805;28;20477;-63
2021/04/01 17:31:47;;;;;;;7.22;2.45;;;;;;;;;;4998391;28;20053;-63
2021/04/01 17:34:32;;;;;;;3.70;1.65;;;;;;;;;;5010906;28;20100;-63
2021/04/01 17:37:17;;;;;;;6.97;1.85;;;;;;;;;;5009755;28;20046;-63
2021/04/01 17:40:03;;;;;;;7.03;1.92;;;;;;;;;;4999674;28;20503;-63
2021/04/01 17:42:49;;;;;;;7.63;1.70;;;;;;;;;;4990786;28;20465;-64